createdAt,value
2023-05-12T00:02:05.103Z,3.10
2023-05-12T00:04:32.468Z,3.05
2023-05-12T00:06:59.789Z,3.40
2023-05-12T00:09:27.417Z,2.65
2023-05-12T00:11:54.964Z,3.20
2023-05-12T00:14:22.410Z,3.45
2023-05-12T00:16:52.006Z,3.05
2023-05-12T00:19:20.331Z,2.97
2023-05-12T00:21:48.187Z,3.05
2023-05-12T00:24:15.772Z,3.00
2023-05-12T00:26:43.106Z,2.78
2023-05-12T00:29:10.418Z,3.03
2023-05-12T00:31:37.728Z,2.60
2023-05-12T00:34:05.028Z,2.70
2023-05-12T00:36:32.330Z,2.95
2023-05-12T00:38:59.644Z,2.97
2023-05-12T00:41:26.997Z,2.67
2023-05-12T00:43:54.273Z,2.97
2023-05-12T00:46:21.987Z,2.95
2023-05-12T00:48:50.069Z,3.00
2023-05-12T00:51:17.642Z,2.95
2023-05-12T00:53:49.761Z,3.25
2023-05-12T00:56:21.895Z,2.95
2023-05-12T00:58:49.214Z,2.92
2023-05-12T01:01:16.693Z,2.90
2023-05-12T01:03:45.300Z,3.05
2023-05-12T01:06:38.187Z,2.95
2023-05-12T01:09:05.945Z,2.63
2023-05-12T01:11:33.175Z,2.90
2023-05-12T01:14:00.667Z,2.90
2023-05-12T01:16:35.066Z,2.85
2023-05-12T01:19:10.675Z,2.92
2023-05-12T01:21:38.555Z,2.70
2023-05-12T01:24:09.273Z,2.80
2023-05-12T01:26:36.726Z,2.60
2023-05-12T01:29:05.044Z,2.65
2023-05-12T01:31:33.099Z,2.78
2023-05-12T01:34:00.852Z,2.70
2023-05-12T01:36:28.144Z,2.65
2023-05-12T01:38:56.029Z,2.60
2023-05-12T01:41:23.310Z,3.70
2023-05-12T01:43:50.771Z,2.70
2023-05-12T01:46:18.067Z,2.58
2023-05-12T01:48:45.378Z,2.63
2023-05-12T01:51:12.717Z,2.42
2023-05-12T01:53:40.089Z,2.53
2023-05-12T01:56:07.480Z,2.50
2023-05-12T01:58:34.798Z,2.63
2023-05-12T02:01:02.097Z,2.67
2023-05-12T02:03:29.465Z,2.80
2023-05-12T02:05:56.790Z,2.38
2023-05-12T02:08:24.171Z,2.47
2023-05-12T02:11:03.615Z,2.60
2023-05-12T02:13:30.895Z,2.70
2023-05-12T02:15:58.204Z,2.30
2023-05-12T02:18:25.618Z,2.22
2023-05-12T02:20:53.098Z,2.40
2023-05-12T02:23:20.626Z,2.25
2023-05-12T02:25:47.846Z,2.35
2023-05-12T02:28:15.165Z,2.42
2023-05-12T02:30:50.416Z,2.28
2023-05-12T02:33:18.924Z,2.30
2023-05-12T02:35:46.235Z,4.97
2023-05-12T02:38:13.835Z,2.25
2023-05-12T02:40:41.232Z,2.25
2023-05-12T02:43:08.640Z,2.30
2023-05-12T02:45:36.010Z,2.40
2023-05-12T02:48:03.481Z,2.88
2023-05-12T02:50:30.771Z,2.35
2023-05-12T02:52:58.055Z,2.95
2023-05-12T02:55:25.518Z,2.10
2023-05-12T02:57:53.293Z,2.10
2023-05-12T03:00:20.678Z,2.25
2023-05-12T03:02:48.225Z,2.40
2023-05-12T03:05:15.577Z,2.40
2023-05-12T03:07:42.853Z,2.30
2023-05-12T03:10:10.613Z,2.40
2023-05-12T03:12:37.987Z,2.40
2023-05-12T03:15:05.755Z,2.30
2023-05-12T03:17:33.163Z,2.72
2023-05-12T03:20:00.472Z,2.38
2023-05-12T03:22:27.813Z,2.03
2023-05-12T03:24:55.103Z,2.10
2023-05-12T03:27:22.636Z,2.10
2023-05-12T03:29:49.937Z,2.55
2023-05-12T03:32:17.237Z,2.40
2023-05-12T03:34:44.488Z,2.88
2023-05-12T03:37:11.760Z,2.85
2023-05-12T03:39:39.030Z,2.80
2023-05-12T03:42:06.696Z,2.30
2023-05-12T03:44:33.932Z,2.00
2023-05-12T03:47:01.709Z,2.08
2023-05-12T03:49:29.117Z,2.75
2023-05-12T03:51:56.475Z,2.08
2023-05-12T03:54:23.719Z,1.90
2023-05-12T03:56:52.149Z,3.30
2023-05-12T03:59:19.449Z,2.13
2023-05-12T04:01:46.802Z,2.10
2023-05-12T04:04:14.152Z,1.90
2023-05-12T04:06:41.465Z,1.50
2023-05-12T04:09:08.820Z,1.92
2023-05-12T04:11:36.961Z,2.05
2023-05-12T04:14:04.239Z,1.95
2023-05-12T04:16:31.624Z,3.65
2023-05-12T04:18:58.941Z,1.77
2023-05-12T04:21:26.394Z,2.40
2023-05-12T04:23:53.763Z,1.70
2023-05-12T04:26:22.064Z,1.60
2023-05-12T04:28:49.364Z,2.72
2023-05-12T04:31:16.663Z,1.63
2023-05-12T04:33:44.948Z,1.67
2023-05-12T04:36:13.780Z,1.80
2023-05-12T04:38:41.967Z,1.83
2023-05-12T04:41:09.326Z,1.60
2023-05-12T04:46:07.082Z,1.92
2023-05-12T04:48:34.481Z,2.17
2023-05-12T04:51:01.756Z,2.15
2023-05-12T04:53:29.160Z,1.40
2023-05-12T04:55:56.767Z,2.50
2023-05-12T04:58:24.120Z,1.90
2023-05-12T05:00:51.594Z,2.08
2023-05-12T05:03:19.000Z,1.50
2023-05-12T05:05:46.313Z,1.70
2023-05-12T05:08:13.624Z,1.23
2023-05-12T05:10:40.885Z,1.50
2023-05-12T05:13:08.142Z,1.50
2023-05-12T05:15:35.502Z,1.30
2023-05-12T05:18:02.884Z,2.03
2023-05-12T05:20:32.845Z,1.90
2023-05-12T05:23:00.292Z,2.83
2023-05-12T05:25:27.951Z,1.50
2023-05-12T05:27:55.796Z,1.75
2023-05-12T05:30:23.079Z,1.40
2023-05-12T05:32:50.413Z,1.50
2023-05-12T05:35:18.015Z,1.52
2023-05-12T05:37:45.425Z,1.50
2023-05-12T05:40:13.003Z,2.22
2023-05-12T05:42:40.416Z,1.35
2023-05-12T05:45:08.321Z,1.65
2023-05-12T05:47:37.438Z,2.00
2023-05-12T05:50:05.622Z,2.33
2023-05-12T05:52:32.996Z,2.63
2023-05-12T05:55:00.413Z,1.67
2023-05-12T05:57:28.299Z,1.50
2023-05-12T05:59:55.589Z,1.70
2023-05-12T06:02:23.594Z,2.22
2023-05-12T06:04:52.390Z,1.60
2023-05-12T06:07:20.997Z,2.10
2023-05-12T06:09:49.448Z,2.40
2023-05-12T06:12:16.679Z,2.05
2023-05-12T06:14:43.961Z,2.40
2023-05-12T06:17:11.257Z,3.00
2023-05-12T06:19:38.665Z,5.90
2023-05-12T06:22:06.304Z,4.05
2023-05-12T06:24:33.563Z,5.28
2023-05-12T06:27:01.380Z,3.22
2023-05-12T06:29:28.668Z,3.95
2023-05-12T06:31:56.070Z,4.35
2023-05-12T06:34:23.411Z,3.40
2023-05-12T06:36:50.735Z,3.80
2023-05-12T06:39:18.262Z,3.83
2023-05-12T06:41:45.503Z,4.90
2023-05-12T06:44:13.406Z,3.95
2023-05-12T06:46:40.692Z,5.05
2023-05-12T06:49:08.484Z,3.45
2023-05-12T06:51:36.738Z,4.45
2023-05-12T06:54:04.096Z,3.70
2023-05-12T06:56:31.833Z,3.92
2023-05-12T06:59:01.168Z,4.60
2023-05-12T07:01:29.198Z,4.43
2023-05-12T07:03:57.019Z,3.30
2023-05-12T07:06:27.531Z,4.20
2023-05-12T07:08:55.971Z,4.90
2023-05-12T07:11:23.700Z,4.10
2023-05-12T07:13:52.049Z,4.82
2023-05-12T07:16:20.159Z,4.78
2023-05-12T07:18:47.648Z,5.30
2023-05-12T07:21:15.624Z,5.10
2023-05-12T07:23:42.921Z,5.95
2023-05-12T07:26:10.449Z,6.32
2023-05-12T07:28:38.118Z,6.43
2023-05-12T07:31:07.644Z,5.57
2023-05-12T07:33:35.788Z,6.53
2023-05-12T07:36:04.797Z,6.97
2023-05-12T07:38:32.706Z,6.20
2023-05-12T07:41:00.581Z,9.05
2023-05-12T07:43:27.978Z,6.07
2023-05-12T07:45:56.166Z,6.05
2023-05-12T07:48:23.507Z,6.00
2023-05-12T07:50:50.796Z,6.45
2023-05-12T07:53:18.089Z,7.78
2023-05-12T07:55:45.930Z,6.35
2023-05-12T07:58:13.373Z,6.82
2023-05-12T08:00:40.840Z,6.50
2023-05-12T08:03:08.228Z,6.65
2023-05-12T08:05:35.521Z,6.20
2023-05-12T08:08:02.845Z,6.65
2023-05-12T08:10:32.588Z,7.57
2023-05-12T08:12:59.901Z,6.60
2023-05-12T08:15:27.177Z,8.18
2023-05-12T08:17:54.493Z,6.82
2023-05-12T08:20:22.394Z,6.63
2023-05-12T08:22:50.905Z,6.55
2023-05-12T08:25:18.363Z,6.40
2023-05-12T08:27:45.732Z,6.85
2023-05-12T08:30:13.386Z,7.38
2023-05-12T08:32:40.928Z,6.70
2023-05-12T08:35:08.338Z,6.63
2023-05-12T08:37:35.696Z,7.95
2023-05-12T08:40:07.157Z,5.90
2023-05-12T08:42:44.586Z,6.15
2023-05-12T08:45:12.310Z,6.57
2023-05-12T08:47:41.056Z,6.53
2023-05-12T08:50:10.110Z,7.10
2023-05-12T08:52:37.660Z,6.35
2023-05-12T08:55:05.668Z,6.18
2023-05-12T08:57:33.523Z,6.15
2023-05-12T09:00:04.776Z,7.43
2023-05-12T09:02:41.322Z,6.20
2023-05-12T09:05:15.965Z,6.05
2023-05-12T09:07:44.786Z,6.55
2023-05-12T09:10:34.622Z,6.63
2023-05-12T09:13:15.203Z,6.25
2023-05-12T09:15:45.386Z,7.65
2023-05-12T09:18:12.841Z,6.78
2023-05-12T09:20:40.351Z,7.03
2023-05-12T09:23:22.047Z,7.15
2023-05-12T09:26:01.282Z,6.68
2023-05-12T09:28:40.870Z,8.65
2023-05-12T09:31:27.207Z,7.07
2023-05-12T09:33:54.664Z,6.55
2023-05-12T09:36:24.028Z,6.85
2023-05-12T09:39:05.551Z,6.10
2023-05-12T09:41:36.603Z,6.55
2023-05-12T09:44:04.601Z,6.25
2023-05-12T09:46:32.269Z,6.78
2023-05-12T09:49:00.152Z,6.85
2023-05-12T09:51:28.300Z,6.63
2023-05-12T09:53:55.629Z,5.90
2023-05-12T09:56:24.569Z,6.28
2023-05-12T09:58:53.596Z,7.13
2023-05-12T10:01:24.509Z,6.15
2023-05-12T10:03:55.083Z,6.20
2023-05-12T10:06:31.673Z,6.32
2023-05-12T10:09:14.313Z,6.18
2023-05-12T10:11:42.758Z,5.75
2023-05-12T10:14:11.222Z,6.18
2023-05-12T10:16:40.523Z,5.70
2023-05-12T10:19:10.471Z,5.68
2023-05-12T10:21:39.670Z,5.57
2023-05-12T10:24:07.711Z,6.07
2023-05-12T10:26:37.597Z,5.57
2023-05-12T10:29:06.101Z,5.70
2023-05-12T10:31:36.020Z,5.72
2023-05-12T10:34:04.077Z,6.00
2023-05-12T10:36:31.565Z,5.20
2023-05-12T10:39:06.377Z,5.78
2023-05-12T10:41:35.249Z,5.60
2023-05-12T10:44:02.978Z,5.40
2023-05-12T10:46:30.797Z,5.90
2023-05-12T10:49:02.379Z,5.15
2023-05-12T10:51:54.001Z,5.70
2023-05-12T10:54:24.885Z,4.90
2023-05-12T10:56:53.368Z,5.70
2023-05-12T10:59:24.186Z,5.32
2023-05-12T11:02:06.619Z,5.50
2023-05-12T11:04:41.760Z,5.22
2023-05-12T11:07:11.808Z,5.55
2023-05-12T11:09:52.727Z,5.05
2023-05-12T11:12:26.859Z,5.65
2023-05-12T11:14:54.287Z,4.68
2023-05-12T11:17:21.901Z,4.75
2023-05-12T11:19:50.658Z,4.43
2023-05-12T11:22:21.698Z,5.35
2023-05-12T11:24:50.563Z,4.28
2023-05-12T11:27:23.164Z,4.40
2023-05-12T11:30:02.864Z,4.97
2023-05-12T11:32:30.936Z,4.47
2023-05-12T11:35:16.509Z,3.72
2023-05-12T11:37:45.237Z,4.93
2023-05-12T11:40:23.066Z,4.25
2023-05-12T11:42:52.825Z,4.50
2023-05-12T11:45:26.237Z,3.85
2023-05-12T11:48:05.005Z,4.13
2023-05-12T11:50:32.488Z,4.18
2023-05-12T11:52:59.966Z,5.25
2023-05-12T11:55:27.331Z,4.45
2023-05-12T11:58:00.234Z,5.07
2023-05-12T12:00:35.480Z,4.10
2023-05-12T12:03:10.329Z,4.00
2023-05-12T12:05:39.166Z,4.25
2023-05-12T12:08:09.007Z,4.57
2023-05-12T12:10:36.606Z,3.90
2023-05-12T12:13:04.042Z,3.67
2023-05-12T12:15:31.515Z,4.10
2023-05-12T12:17:58.854Z,3.83
2023-05-12T12:20:26.527Z,3.65
2023-05-12T12:22:54.626Z,3.58
2023-05-12T12:25:22.588Z,4.03
2023-05-12T12:27:50.262Z,3.97
2023-05-12T12:30:17.548Z,3.72
2023-05-12T12:32:46.133Z,3.95
2023-05-12T12:35:13.927Z,3.95
2023-05-12T12:37:41.727Z,3.83
2023-05-12T12:40:09.942Z,3.50
2023-05-12T12:42:39.655Z,3.40
2023-05-12T12:45:08.516Z,3.47
2023-05-12T12:47:37.262Z,3.40
2023-05-12T12:50:05.637Z,3.15
2023-05-12T12:52:33.227Z,3.13
2023-05-12T12:55:00.570Z,3.35
2023-05-12T12:57:27.922Z,3.15
2023-05-12T12:59:55.329Z,2.90
2023-05-12T13:02:22.831Z,4.05
2023-05-12T13:04:50.999Z,2.80
2023-05-12T13:07:18.325Z,2.65
2023-05-12T13:09:45.684Z,2.40
2023-05-12T13:12:12.971Z,2.33
2023-05-12T13:14:40.434Z,2.33
2023-05-12T13:17:08.296Z,2.55
2023-05-12T13:19:37.925Z,3.42
2023-05-12T13:22:05.825Z,2.30
2023-05-12T13:24:33.176Z,2.20
2023-05-12T13:27:00.528Z,2.15
2023-05-12T13:29:28.019Z,2.20
2023-05-12T13:31:55.389Z,2.05
2023-05-12T13:34:22.685Z,2.00
2023-05-12T13:36:49.997Z,2.03
2023-05-12T13:39:18.992Z,2.30
2023-05-12T13:41:47.048Z,2.47
2023-05-12T13:44:14.357Z,2.15
2023-05-12T13:46:41.727Z,1.77
2023-05-12T13:49:09.123Z,2.17
2023-05-12T13:51:36.637Z,1.70
2023-05-12T13:54:03.904Z,2.03
2023-05-12T13:56:31.984Z,2.00
2023-05-12T13:58:59.208Z,2.13
2023-05-12T14:01:26.588Z,1.98
2023-05-12T14:03:53.892Z,1.80
2023-05-12T14:06:21.109Z,1.95
2023-05-12T14:08:48.365Z,1.90
2023-05-12T14:11:16.810Z,2.08
2023-05-12T14:13:44.261Z,1.90
2023-05-12T14:16:13.891Z,1.63
2023-05-12T14:18:43.347Z,1.80
2023-05-12T14:21:11.082Z,2.05
2023-05-12T14:23:39.888Z,1.80
2023-05-12T14:26:07.322Z,1.70
2023-05-12T14:28:34.741Z,2.17
2023-05-12T14:31:03.544Z,2.05
2023-05-12T14:33:31.544Z,1.80
2023-05-12T14:36:06.463Z,2.25
2023-05-12T14:38:35.925Z,2.08
2023-05-12T14:41:03.985Z,2.30
2023-05-12T14:43:31.235Z,2.50
2023-05-12T14:45:58.535Z,2.60
2023-05-12T14:48:26.189Z,2.58
2023-05-12T14:50:54.816Z,2.40
2023-05-12T14:53:22.857Z,3.13
2023-05-12T14:55:50.952Z,2.80
2023-05-12T14:58:19.087Z,2.70
2023-05-12T15:00:47.512Z,2.80
2023-05-12T15:03:15.078Z,3.00
2023-05-12T15:06:01.556Z,2.70
2023-05-12T15:08:29.810Z,3.22
2023-05-12T15:10:57.150Z,2.63
2023-05-12T15:13:24.676Z,3.15
2023-05-12T15:15:55.031Z,2.80
2023-05-12T15:18:24.037Z,3.38
2023-05-12T15:20:51.825Z,3.20
2023-05-12T15:23:19.265Z,3.03
2023-05-12T15:25:46.560Z,3.35
2023-05-12T15:28:13.981Z,3.33
2023-05-12T15:30:41.329Z,3.05
2023-05-12T15:33:08.678Z,3.35
2023-05-12T15:35:36.020Z,2.97
2023-05-12T15:38:03.308Z,3.30
2023-05-12T15:40:31.093Z,3.20
2023-05-12T15:42:58.563Z,3.42
2023-05-12T15:45:25.932Z,3.25
2023-05-12T15:47:53.334Z,3.55
2023-05-12T15:50:23.017Z,3.35
2023-05-12T15:52:50.592Z,3.65
2023-05-12T15:55:18.245Z,3.58
2023-05-12T15:57:45.639Z,3.72
2023-05-12T16:00:13.645Z,3.50
2023-05-12T16:02:41.194Z,3.30
2023-05-12T16:05:09.710Z,3.38
2023-05-12T16:07:37.065Z,3.47
2023-05-12T16:10:05.018Z,3.63
2023-05-12T16:12:32.325Z,3.47
2023-05-12T16:15:02.181Z,3.13
2023-05-12T16:17:29.713Z,3.50
2023-05-12T16:19:57.199Z,3.15
2023-05-12T16:22:24.633Z,3.25
2023-05-12T16:24:53.728Z,3.05
2023-05-12T16:27:21.060Z,2.97
2023-05-12T16:29:49.583Z,3.20
2023-05-12T16:32:17.547Z,3.42
2023-05-12T16:34:45.196Z,3.47
2023-05-12T16:37:12.554Z,3.13
2023-05-12T16:39:39.931Z,3.38
2023-05-12T16:42:07.446Z,2.83
2023-05-12T16:44:34.737Z,3.22
2023-05-12T16:47:02.066Z,2.80
2023-05-12T16:49:29.363Z,3.05
2023-05-12T16:51:56.599Z,3.20
2023-05-12T16:54:24.095Z,3.22
2023-05-12T16:56:51.409Z,3.10
2023-05-12T16:59:18.704Z,3.50
2023-05-12T17:01:46.093Z,3.10
2023-05-12T17:04:15.341Z,3.47
2023-05-12T17:06:43.269Z,3.13
2023-05-12T17:09:10.578Z,3.35
2023-05-12T17:11:38.057Z,4.03
2023-05-12T17:14:05.306Z,3.45
2023-05-12T17:16:32.671Z,3.83
2023-05-12T17:21:30.200Z,3.38
2023-05-12T17:23:57.599Z,3.97
2023-05-12T17:26:27.673Z,3.80
2023-05-12T17:28:55.512Z,3.90
2023-05-12T17:31:22.931Z,5.45
2023-05-12T17:33:50.342Z,3.90
2023-05-12T17:36:18.674Z,3.80
2023-05-12T17:38:46.492Z,4.05
2023-05-12T17:41:14.424Z,4.43
2023-05-12T17:43:41.764Z,4.10
2023-05-12T17:46:09.215Z,5.35
2023-05-12T17:48:38.592Z,5.20
2023-05-12T17:51:06.657Z,5.75
2023-05-12T17:53:34.260Z,4.93
2023-05-12T17:56:01.712Z,5.07
2023-05-12T17:58:29.063Z,5.20
2023-05-12T18:00:56.687Z,5.10
2023-05-12T18:03:24.289Z,5.95
2023-05-12T18:05:53.231Z,5.38
2023-05-12T18:08:21.531Z,4.82
2023-05-12T18:10:48.968Z,4.82
2023-05-12T18:13:16.363Z,4.40
2023-05-12T18:15:43.711Z,6.68
2023-05-12T18:18:11.416Z,4.35
2023-05-12T18:20:38.812Z,4.22
2023-05-12T18:23:06.167Z,4.28
2023-05-12T18:25:33.447Z,4.00
2023-05-12T18:28:00.814Z,5.65
2023-05-12T18:30:28.128Z,4.93
2023-05-12T18:32:55.577Z,3.83
2023-05-12T18:35:23.213Z,5.00
2023-05-12T18:37:50.852Z,3.92
2023-05-12T18:40:18.122Z,4.40
2023-05-12T18:42:45.390Z,4.10
2023-05-12T18:45:12.720Z,4.18
2023-05-12T18:47:40.010Z,5.35
2023-05-12T18:50:08.038Z,4.78
2023-05-12T18:52:35.714Z,5.47
2023-05-12T18:55:03.170Z,5.40
2023-05-12T18:57:30.436Z,5.22
2023-05-12T18:59:57.835Z,4.82
2023-05-12T19:02:25.239Z,4.85
2023-05-12T19:04:52.736Z,6.07
2023-05-12T19:07:20.283Z,5.15
2023-05-12T19:09:47.674Z,5.10
2023-05-12T19:12:14.965Z,5.18
2023-05-12T19:14:43.251Z,5.63
2023-05-12T19:17:10.911Z,4.95
2023-05-12T19:19:38.403Z,4.85
2023-05-12T19:22:05.862Z,5.10
2023-05-12T19:24:34.290Z,4.93
2023-05-12T19:27:01.637Z,4.55
2023-05-12T19:29:28.885Z,5.70
2023-05-12T19:31:56.262Z,4.70
2023-05-12T19:34:23.971Z,5.45
2023-05-12T19:36:52.976Z,5.10
2023-05-12T19:39:20.285Z,6.82
2023-05-12T19:41:47.724Z,6.03
2023-05-12T19:44:15.023Z,7.93
2023-05-12T19:46:43.614Z,5.97
2023-05-12T19:49:11.085Z,7.90
2023-05-12T19:51:38.505Z,6.10
2023-05-12T19:54:06.561Z,6.50
2023-05-12T19:56:34.102Z,7.32
2023-05-12T19:59:01.414Z,6.40
2023-05-12T20:01:28.809Z,7.60
2023-05-12T20:03:56.320Z,7.85
2023-05-12T20:06:24.992Z,8.05
2023-05-12T20:08:52.572Z,7.72
2023-05-12T20:11:19.934Z,7.97
2023-05-12T20:13:47.228Z,7.95
2023-05-12T20:16:14.576Z,9.27
2023-05-12T20:18:41.932Z,7.05
2023-05-12T20:21:09.233Z,8.50
2023-05-12T20:23:36.619Z,10.18
2023-05-12T20:26:04.809Z,6.65
2023-05-12T20:28:32.187Z,8.38
2023-05-12T20:30:59.440Z,7.60
2023-05-12T20:33:26.901Z,7.97
2023-05-12T20:35:54.305Z,10.02
2023-05-12T20:38:21.862Z,8.57
2023-05-12T20:40:49.196Z,8.55
2023-05-12T20:43:16.476Z,8.70
2023-05-12T20:45:43.822Z,10.38
2023-05-12T20:48:11.172Z,7.85
2023-05-12T20:50:38.532Z,8.15
2023-05-12T20:53:05.967Z,7.50
2023-05-12T20:55:33.914Z,8.48
2023-05-12T20:58:01.285Z,8.32
2023-05-12T21:00:28.595Z,7.50
2023-05-12T21:02:56.126Z,9.50
2023-05-12T21:05:23.638Z,10.57
2023-05-12T21:07:51.022Z,10.15
2023-05-12T21:10:18.594Z,8.50
2023-05-12T21:12:46.066Z,9.13
2023-05-12T21:15:13.720Z,9.63
2023-05-12T21:17:41.594Z,10.07
2023-05-12T21:20:12.687Z,11.50
2023-05-12T21:22:40.807Z,8.63
2023-05-12T21:25:08.600Z,8.77
2023-05-12T21:27:42.257Z,8.98
2023-05-12T21:30:10.823Z,7.80
2023-05-12T21:32:39.487Z,10.48
2023-05-12T21:35:08.080Z,9.85
2023-05-12T21:37:35.704Z,12.50
2023-05-12T21:40:03.973Z,9.20
2023-05-12T21:42:31.322Z,8.75
2023-05-12T21:44:58.886Z,7.28
2023-05-12T21:47:26.299Z,9.20
2023-05-12T21:49:55.052Z,10.23
2023-05-12T21:52:22.986Z,8.00
2023-05-12T21:54:50.299Z,8.05
2023-05-12T21:57:17.633Z,8.23
2023-05-12T21:59:45.125Z,8.02
2023-05-12T22:02:13.211Z,7.72
2023-05-12T22:04:40.618Z,7.53
2023-05-12T22:07:07.930Z,7.70
2023-05-12T22:09:35.244Z,7.95
2023-05-12T22:12:02.499Z,8.30
2023-05-12T22:14:29.840Z,9.60
2023-05-12T22:16:57.751Z,8.88
2023-05-12T22:19:25.143Z,9.10
2023-05-12T22:21:53.047Z,8.65
2023-05-12T22:24:20.329Z,8.68
2023-05-12T22:26:47.591Z,7.70
2023-05-12T22:29:14.864Z,6.80
2023-05-12T22:31:42.594Z,8.48
2023-05-12T22:34:10.162Z,7.90
2023-05-12T22:36:37.601Z,7.90
2023-05-12T22:39:04.906Z,6.88
2023-05-12T22:41:32.178Z,7.25
2023-05-12T22:43:59.571Z,7.68
2023-05-12T22:46:27.160Z,6.72
2023-05-12T22:48:54.520Z,7.70
2023-05-12T22:51:21.857Z,7.70
2023-05-12T22:53:49.185Z,9.50
2023-05-12T22:56:16.509Z,6.78
2023-05-12T22:58:43.846Z,8.55
2023-05-12T23:01:11.413Z,7.07
2023-05-12T23:03:38.876Z,7.18
2023-05-12T23:06:06.364Z,7.15
2023-05-12T23:08:33.708Z,7.93
2023-05-12T23:11:01.020Z,6.65
2023-05-12T23:13:29.269Z,7.22
2023-05-12T23:15:56.572Z,6.95
2023-05-12T23:18:23.876Z,7.07
2023-05-12T23:20:51.327Z,6.75
2023-05-12T23:23:18.600Z,6.70
2023-05-12T23:25:47.312Z,7.50
2023-05-12T23:28:14.778Z,7.32
2023-05-12T23:30:42.077Z,7.72
2023-05-12T23:33:09.450Z,7.90
2023-05-12T23:35:37.143Z,9.07
2023-05-12T23:38:04.434Z,7.45
2023-05-12T23:40:33.437Z,6.38
2023-05-12T23:43:00.747Z,7.85
2023-05-12T23:45:28.399Z,7.35
2023-05-12T23:47:55.793Z,6.97
2023-05-12T23:50:23.583Z,6.95
2023-05-12T23:52:55.112Z,6.60
2023-05-12T23:55:22.507Z,6.40
2023-05-12T23:57:50.111Z,7.32
